sensor_id;sensor_type;location;lat;lon;timestamp;P1;durP1;ratioP1;P2;durP2;ratioP2
5569;SDS011;2808;51.240;6.794;2024-01-07T00:26:24;36.40;;;14.07;;
5569;SDS011;2808;51.240;6.794;2024-01-07T00:29:24;31.70;;;15.17;;
5569;SDS011;2808;51.240;6.794;2024-01-07T00:32:02;26.43;;;14.10;;
5569;SDS011;2808;51.240;6.794;2024-01-07T00:34:55;30.53;;;14.57;;
5569;SDS011;2808;51.240;6.794;2024-01-07T00:46:59;33.87;;;15.73;;
5569;SDS011;2808;51.240;6.794;2024-01-07T00:50:16;35.47;;;15.67;;
5569;SDS011;2808;51.240;6.794;2024-01-07T00:56:37;33.20;;;13.67;;
5569;SDS011;2808;51.240;6.794;2024-01-07T01:00:05;30.23;;;13.50;;
5569;SDS011;2808;51.240;6.794;2024-01-07T01:03:45;30.67;;;13.30;;
5569;SDS011;2808;51.240;6.794;2024-01-07T01:06:51;27.07;;;13.80;;
5569;SDS011;2808;51.240;6.794;2024-01-07T01:09:35;28.70;;;12.90;;
5569;SDS011;2808;51.240;6.794;2024-01-07T01:12:04;29.70;;;13.90;;
5569;SDS011;2808;51.240;6.794;2024-01-07T01:14:31;28.30;;;13.30;;
5569;SDS011;2808;51.240;6.794;2024-01-07T01:17:00;28.93;;;13.00;;
5569;SDS011;2808;51.240;6.794;2024-01-07T01:19:28;29.17;;;15.10;;
5569;SDS011;2808;51.240;6.794;2024-01-07T01:21:55;28.10;;;14.20;;
5569;SDS011;2808;51.240;6.794;2024-01-07T01:24:23;32.03;;;14.43;;
5569;SDS011;2808;51.240;6.794;2024-01-07T01:26:50;27.37;;;14.13;;
5569;SDS011;2808;51.240;6.794;2024-01-07T01:29:17;33.70;;;16.20;;
5569;SDS011;2808;51.240;6.794;2024-01-07T01:31:45;29.67;;;14.13;;
5569;SDS011;2808;51.240;6.794;2024-01-07T01:34:13;41.87;;;16.20;;
5569;SDS011;2808;51.240;6.794;2024-01-07T01:36:41;32.80;;;15.70;;
5569;SDS011;2808;51.240;6.794;2024-01-07T01:39:10;31.07;;;13.97;;
5569;SDS011;2808;51.240;6.794;2024-01-07T01:41:38;31.70;;;15.87;;
5569;SDS011;2808;51.240;6.794;2024-01-07T01:44:10;27.43;;;14.10;;
5569;SDS011;2808;51.240;6.794;2024-01-07T01:46:44;26.37;;;12.80;;
5569;SDS011;2808;51.240;6.794;2024-01-07T01:49:14;24.37;;;12.83;;
5569;SDS011;2808;51.240;6.794;2024-01-07T01:51:42;28.00;;;12.13;;
5569;SDS011;2808;51.240;6.794;2024-01-07T01:54:09;27.93;;;13.23;;
5569;SDS011;2808;51.240;6.794;2024-01-07T01:56:37;23.20;;;11.70;;
5569;SDS011;2808;51.240;6.794;2024-01-07T01:59:05;25.13;;;11.00;;
5569;SDS011;2808;51.240;6.794;2024-01-07T02:01:33;23.83;;;13.20;;
5569;SDS011;2808;51.240;6.794;2024-01-07T02:04:00;25.83;;;11.77;;
5569;SDS011;2808;51.240;6.794;2024-01-07T02:06:29;20.00;;;11.23;;
5569;SDS011;2808;51.240;6.794;2024-01-07T02:08:57;32.03;;;12.00;;
5569;SDS011;2808;51.240;6.794;2024-01-07T02:11:24;29.33;;;12.90;;
5569;SDS011;2808;51.240;6.794;2024-01-07T02:13:54;22.57;;;11.93;;
5569;SDS011;2808;51.240;6.794;2024-01-07T02:16:22;26.97;;;12.53;;
5569;SDS011;2808;51.240;6.794;2024-01-07T02:18:50;27.23;;;12.37;;
5569;SDS011;2808;51.240;6.794;2024-01-07T02:21:17;24.50;;;11.67;;
5569;SDS011;2808;51.240;6.794;2024-01-07T02:23:46;24.13;;;11.70;;
5569;SDS011;2808;51.240;6.794;2024-01-07T02:26:15;26.73;;;11.43;;
5569;SDS011;2808;51.240;6.794;2024-01-07T02:28:42;27.27;;;12.03;;
5569;SDS011;2808;51.240;6.794;2024-01-07T02:31:10;28.73;;;13.10;;
5569;SDS011;2808;51.240;6.794;2024-01-07T02:33:37;21.03;;;10.80;;
5569;SDS011;2808;51.240;6.794;2024-01-07T02:36:05;26.87;;;12.23;;
5569;SDS011;2808;51.240;6.794;2024-01-07T02:38:32;25.80;;;11.70;;
5569;SDS011;2808;51.240;6.794;2024-01-07T02:41:00;23.70;;;12.20;;
5569;SDS011;2808;51.240;6.794;2024-01-07T02:43:29;26.27;;;12.23;;
5569;SDS011;2808;51.240;6.794;2024-01-07T02:45:56;30.20;;;12.40;;
5569;SDS011;2808;51.240;6.794;2024-01-07T02:48:24;26.73;;;12.40;;
5569;SDS011;2808;51.240;6.794;2024-01-07T02:50:51;24.40;;;11.43;;
5569;SDS011;2808;51.240;6.794;2024-01-07T02:53:19;27.33;;;11.87;;
5569;SDS011;2808;51.240;6.794;2024-01-07T02:55:46;27.90;;;13.23;;
5569;SDS011;2808;51.240;6.794;2024-01-07T02:58:13;30.10;;;12.87;;
5569;SDS011;2808;51.240;6.794;2024-01-07T03:00:42;27.80;;;13.70;;
5569;SDS011;2808;51.240;6.794;2024-01-07T03:03:10;27.80;;;11.73;;
5569;SDS011;2808;51.240;6.794;2024-01-07T03:05:38;29.33;;;12.40;;
5569;SDS011;2808;51.240;6.794;2024-01-07T03:08:05;29.77;;;12.27;;
5569;SDS011;2808;51.240;6.794;2024-01-07T03:10:33;30.43;;;13.30;;
5569;SDS011;2808;51.240;6.794;2024-01-07T03:13:01;28.73;;;12.07;;
5569;SDS011;2808;51.240;6.794;2024-01-07T03:15:28;26.40;;;12.00;;
5569;SDS011;2808;51.240;6.794;2024-01-07T03:17:57;27.70;;;12.63;;
5569;SDS011;2808;51.240;6.794;2024-01-07T03:20:24;26.30;;;12.77;;
5569;SDS011;2808;51.240;6.794;2024-01-07T03:22:52;29.23;;;13.57;;
5569;SDS011;2808;51.240;6.794;2024-01-07T03:25:20;29.30;;;13.50;;
5569;SDS011;2808;51.240;6.794;2024-01-07T03:27:47;29.37;;;13.47;;
5569;SDS011;2808;51.240;6.794;2024-01-07T03:30:15;27.13;;;12.53;;
5569;SDS011;2808;51.240;6.794;2024-01-07T03:32:43;29.77;;;13.37;;
5569;SDS011;2808;51.240;6.794;2024-01-07T03:35:12;32.17;;;13.13;;
5569;SDS011;2808;51.240;6.794;2024-01-07T03:37:39;27.53;;;12.97;;
5569;SDS011;2808;51.240;6.794;2024-01-07T03:40:09;26.83;;;12.63;;
5569;SDS011;2808;51.240;6.794;2024-01-07T03:42:40;27.27;;;12.70;;
5569;SDS011;2808;51.240;6.794;2024-01-07T03:45:07;24.90;;;11.60;;
5569;SDS011;2808;51.240;6.794;2024-01-07T03:47:35;23.90;;;11.97;;
5569;SDS011;2808;51.240;6.794;2024-01-07T03:50:02;22.73;;;10.50;;
5569;SDS011;2808;51.240;6.794;2024-01-07T03:52:33;27.40;;;12.33;;
5569;SDS011;2808;51.240;6.794;2024-01-07T03:55:00;22.80;;;11.83;;
5569;SDS011;2808;51.240;6.794;2024-01-07T03:57:28;28.13;;;12.20;;
5569;SDS011;2808;51.240;6.794;2024-01-07T03:59:55;25.27;;;11.40;;
5569;SDS011;2808;51.240;6.794;2024-01-07T04:02:23;28.50;;;12.00;;
5569;SDS011;2808;51.240;6.794;2024-01-07T04:04:51;28.77;;;12.70;;
5569;SDS011;2808;51.240;6.794;2024-01-07T04:07:18;23.60;;;11.13;;
5569;SDS011;2808;51.240;6.794;2024-01-07T04:09:47;25.60;;;11.80;;
5569;SDS011;2808;51.240;6.794;2024-01-07T04:12:14;22.80;;;12.17;;
5569;SDS011;2808;51.240;6.794;2024-01-07T04:14:42;32.90;;;12.47;;
5569;SDS011;2808;51.240;6.794;2024-01-07T04:17:10;25.70;;;11.43;;
5569;SDS011;2808;51.240;6.794;2024-01-07T04:19:37;24.50;;;11.63;;
5569;SDS011;2808;51.240;6.794;2024-01-07T04:22:04;25.57;;;12.37;;
5569;SDS011;2808;51.240;6.794;2024-01-07T04:24:32;24.20;;;11.90;;
5569;SDS011;2808;51.240;6.794;2024-01-07T04:27:01;28.17;;;12.20;;
5569;SDS011;2808;51.240;6.794;2024-01-07T04:29:28;26.60;;;13.23;;
5569;SDS011;2808;51.240;6.794;2024-01-07T04:31:56;28.77;;;12.93;;
5569;SDS011;2808;51.240;6.794;2024-01-07T04:34:23;29.33;;;12.47;;
5569;SDS011;2808;51.240;6.794;2024-01-07T04:36:51;27.90;;;13.80;;
5569;SDS011;2808;51.240;6.794;2024-01-07T04:39:18;25.60;;;12.60;;
5569;SDS011;2808;51.240;6.794;2024-01-07T04:41:47;23.90;;;12.47;;
5569;SDS011;2808;51.240;6.794;2024-01-07T04:44:16;30.10;;;13.13;;
5569;SDS011;2808;51.240;6.794;2024-01-07T04:46:44;26.73;;;13.37;;
5569;SDS011;2808;51.240;6.794;2024-01-07T04:49:13;28.60;;;12.90;;
5569;SDS011;2808;51.240;6.794;2024-01-07T04:51:41;28.70;;;13.53;;
5569;SDS011;2808;51.240;6.794;2024-01-07T04:54:08;27.50;;;13.30;;
5569;SDS011;2808;51.240;6.794;2024-01-07T04:56:36;27.67;;;13.13;;
5569;SDS011;2808;51.240;6.794;2024-01-07T04:59:03;32.37;;;14.27;;
5569;SDS011;2808;51.240;6.794;2024-01-07T05:01:33;28.63;;;15.13;;
5569;SDS011;2808;51.240;6.794;2024-01-07T05:04:00;26.97;;;13.10;;
5569;SDS011;2808;51.240;6.794;2024-01-07T05:06:28;30.43;;;14.07;;
5569;SDS011;2808;51.240;6.794;2024-01-07T05:08:55;32.47;;;14.03;;
5569;SDS011;2808;51.240;6.794;2024-01-07T05:11:23;28.57;;;13.70;;
5569;SDS011;2808;51.240;6.794;2024-01-07T05:13:50;24.00;;;12.17;;
5569;SDS011;2808;51.240;6.794;2024-01-07T05:16:18;26.90;;;14.07;;
5569;SDS011;2808;51.240;6.794;2024-01-07T05:18:47;29.40;;;13.87;;
5569;SDS011;2808;51.240;6.794;2024-01-07T05:21:14;26.60;;;13.10;;
5569;SDS011;2808;51.240;6.794;2024-01-07T05:23:44;25.83;;;12.57;;
5569;SDS011;2808;51.240;6.794;2024-01-07T05:26:11;24.47;;;12.50;;
5569;SDS011;2808;51.240;6.794;2024-01-07T05:28:39;22.87;;;12.63;;
5569;SDS011;2808;51.240;6.794;2024-01-07T05:31:13;26.07;;;11.87;;
5569;SDS011;2808;51.240;6.794;2024-01-07T05:33:43;27.40;;;12.83;;
5569;SDS011;2808;51.240;6.794;2024-01-07T05:36:12;25.43;;;12.70;;
5569;SDS011;2808;51.240;6.794;2024-01-07T05:38:41;20.77;;;11.10;;
5569;SDS011;2808;51.240;6.794;2024-01-07T05:41:10;29.10;;;13.00;;
5569;SDS011;2808;51.240;6.794;2024-01-07T05:43:38;23.37;;;11.87;;
5569;SDS011;2808;51.240;6.794;2024-01-07T05:46:08;27.53;;;12.27;;
5569;SDS011;2808;51.240;6.794;2024-01-07T05:48:43;23.70;;;11.77;;
5569;SDS011;2808;51.240;6.794;2024-01-07T05:51:14;22.70;;;11.53;;
5569;SDS011;2808;51.240;6.794;2024-01-07T05:53:42;31.10;;;12.43;;
5569;SDS011;2808;51.240;6.794;2024-01-07T05:56:10;24.10;;;11.60;;
5569;SDS011;2808;51.240;6.794;2024-01-07T05:58:38;20.53;;;11.17;;
5569;SDS011;2808;51.240;6.794;2024-01-07T06:01:06;20.07;;;10.73;;
5569;SDS011;2808;51.240;6.794;2024-01-07T06:03:34;25.77;;;12.57;;
5569;SDS011;2808;51.240;6.794;2024-01-07T06:06:05;23.77;;;12.10;;
5569;SDS011;2808;51.240;6.794;2024-01-07T06:08:34;22.33;;;11.13;;
5569;SDS011;2808;51.240;6.794;2024-01-07T06:11:01;28.33;;;12.40;;
5569;SDS011;2808;51.240;6.794;2024-01-07T06:13:29;23.00;;;11.57;;
5569;SDS011;2808;51.240;6.794;2024-01-07T06:15:56;28.77;;;12.93;;
5569;SDS011;2808;51.240;6.794;2024-01-07T06:18:24;31.23;;;12.90;;
5569;SDS011;2808;51.240;6.794;2024-01-07T06:20:51;32.33;;;14.30;;
5569;SDS011;2808;51.240;6.794;2024-01-07T06:23:19;28.97;;;12.97;;
5569;SDS011;2808;51.240;6.794;2024-01-07T06:25:48;29.40;;;13.43;;
5569;SDS011;2808;51.240;6.794;2024-01-07T06:28:18;29.90;;;14.17;;
5569;SDS011;2808;51.240;6.794;2024-01-07T06:30:46;32.57;;;13.20;;
5569;SDS011;2808;51.240;6.794;2024-01-07T06:33:13;32.40;;;14.13;;
5569;SDS011;2808;51.240;6.794;2024-01-07T06:35:40;31.20;;;13.37;;
5569;SDS011;2808;51.240;6.794;2024-01-07T06:38:08;29.97;;;13.30;;
5569;SDS011;2808;51.240;6.794;2024-01-07T06:40:36;28.20;;;12.80;;
5569;SDS011;2808;51.240;6.794;2024-01-07T06:43:05;24.13;;;13.30;;
5569;SDS011;2808;51.240;6.794;2024-01-07T06:45:32;26.13;;;12.50;;
5569;SDS011;2808;51.240;6.794;2024-01-07T06:48:03;28.27;;;12.73;;
5569;SDS011;2808;51.240;6.794;2024-01-07T06:50:31;24.10;;;11.97;;
5569;SDS011;2808;51.240;6.794;2024-01-07T06:52:59;34.03;;;15.63;;
5569;SDS011;2808;51.240;6.794;2024-01-07T06:55:26;33.30;;;14.73;;
5569;SDS011;2808;51.240;6.794;2024-01-07T06:57:54;30.23;;;14.20;;
5569;SDS011;2808;51.240;6.794;2024-01-07T07:00:23;26.03;;;13.23;;
5569;SDS011;2808;51.240;6.794;2024-01-07T07:02:52;33.80;;;14.70;;
5569;SDS011;2808;51.240;6.794;2024-01-07T07:05:44;32.83;;;14.17;;
5569;SDS011;2808;51.240;6.794;2024-01-07T07:08:30;27.00;;;14.03;;
5569;SDS011;2808;51.240;6.794;2024-01-07T07:11:05;28.57;;;13.53;;
5569;SDS011;2808;51.240;6.794;2024-01-07T07:13:52;26.33;;;13.60;;
5569;SDS011;2808;51.240;6.794;2024-01-07T07:16:25;34.20;;;15.13;;
5569;SDS011;2808;51.240;6.794;2024-01-07T07:18:52;29.83;;;14.20;;
5569;SDS011;2808;51.240;6.794;2024-01-07T07:21:20;36.40;;;14.97;;
5569;SDS011;2808;51.240;6.794;2024-01-07T07:23:48;33.00;;;13.90;;
5569;SDS011;2808;51.240;6.794;2024-01-07T07:26:15;29.60;;;14.13;;
5569;SDS011;2808;51.240;6.794;2024-01-07T07:28:43;32.50;;;15.70;;
5569;SDS011;2808;51.240;6.794;2024-01-07T07:31:10;30.60;;;14.03;;
5569;SDS011;2808;51.240;6.794;2024-01-07T07:33:39;30.97;;;14.73;;
5569;SDS011;2808;51.240;6.794;2024-01-07T07:36:07;32.47;;;15.17;;
5569;SDS011;2808;51.240;6.794;2024-01-07T07:38:35;40.77;;;16.07;;
5569;SDS011;2808;51.240;6.794;2024-01-07T07:41:02;33.40;;;15.20;;
5569;SDS011;2808;51.240;6.794;2024-01-07T07:43:30;31.20;;;15.70;;
5569;SDS011;2808;51.240;6.794;2024-01-07T07:46:02;29.13;;;13.60;;
5569;SDS011;2808;51.240;6.794;2024-01-07T07:48:30;34.93;;;15.90;;
5569;SDS011;2808;51.240;6.794;2024-01-07T07:53:51;28.97;;;14.00;;
5569;SDS011;2808;51.240;6.794;2024-01-07T07:56:19;30.70;;;15.03;;
5569;SDS011;2808;51.240;6.794;2024-01-07T07:58:46;36.47;;;15.37;;
5569;SDS011;2808;51.240;6.794;2024-01-07T08:01:14;33.97;;;16.97;;
5569;SDS011;2808;51.240;6.794;2024-01-07T08:03:45;40.20;;;17.20;;
5569;SDS011;2808;51.240;6.794;2024-01-07T08:06:15;40.63;;;16.17;;
5569;SDS011;2808;51.240;6.794;2024-01-07T08:08:44;30.27;;;15.20;;
5569;SDS011;2808;51.240;6.794;2024-01-07T08:11:11;32.73;;;17.23;;
5569;SDS011;2808;51.240;6.794;2024-01-07T08:13:39;34.93;;;16.60;;
5569;SDS011;2808;51.240;6.794;2024-01-07T08:16:07;39.57;;;16.90;;
5569;SDS011;2808;51.240;6.794;2024-01-07T08:18:35;46.80;;;17.37;;
5569;SDS011;2808;51.240;6.794;2024-01-07T08:21:03;37.17;;;17.40;;
5569;SDS011;2808;51.240;6.794;2024-01-07T08:23:30;39.57;;;16.97;;
5569;SDS011;2808;51.240;6.794;2024-01-07T08:26:02;40.23;;;17.40;;
5569;SDS011;2808;51.240;6.794;2024-01-07T08:28:30;36.43;;;16.80;;
5569;SDS011;2808;51.240;6.794;2024-01-07T08:30:58;36.67;;;16.80;;
5569;SDS011;2808;51.240;6.794;2024-01-07T08:33:25;36.77;;;16.10;;
5569;SDS011;2808;51.240;6.794;2024-01-07T08:35:54;34.30;;;14.90;;
5569;SDS011;2808;51.240;6.794;2024-01-07T08:38:24;32.00;;;15.00;;
5569;SDS011;2808;51.240;6.794;2024-01-07T08:40:51;28.87;;;15.03;;
5569;SDS011;2808;51.240;6.794;2024-01-07T08:43:24;28.70;;;14.20;;
5569;SDS011;2808;51.240;6.794;2024-01-07T08:49:51;30.37;;;14.97;;
5569;SDS011;2808;51.240;6.794;2024-01-07T08:52:20;28.97;;;14.90;;
5569;SDS011;2808;51.240;6.794;2024-01-07T08:54:48;29.33;;;15.10;;
5569;SDS011;2808;51.240;6.794;2024-01-07T08:57:16;24.00;;;12.43;;
5569;SDS011;2808;51.240;6.794;2024-01-07T08:59:45;20.97;;;12.10;;
5569;SDS011;2808;51.240;6.794;2024-01-07T09:02:13;31.30;;;15.33;;
5569;SDS011;2808;51.240;6.794;2024-01-07T09:04:40;24.60;;;11.70;;
5569;SDS011;2808;51.240;6.794;2024-01-07T09:07:08;23.93;;;11.80;;
5569;SDS011;2808;51.240;6.794;2024-01-07T09:09:38;22.63;;;11.20;;
5569;SDS011;2808;51.240;6.794;2024-01-07T09:12:10;22.27;;;11.47;;
5569;SDS011;2808;51.240;6.794;2024-01-07T09:24:26;19.70;;;10.47;;
5569;SDS011;2808;51.240;6.794;2024-01-07T09:26:59;18.27;;;10.63;;
5569;SDS011;2808;51.240;6.794;2024-01-07T09:29:42;20.57;;;11.17;;
5569;SDS011;2808;51.240;6.794;2024-01-07T09:32:36;24.77;;;12.43;;
5569;SDS011;2808;51.240;6.794;2024-01-07T09:35:30;20.13;;;11.17;;
5569;SDS011;2808;51.240;6.794;2024-01-07T09:39:13;20.87;;;10.43;;
5569;SDS011;2808;51.240;6.794;2024-01-07T09:42:38;19.53;;;10.57;;
5569;SDS011;2808;51.240;6.794;2024-01-07T09:45:52;23.00;;;10.73;;
5569;SDS011;2808;51.240;6.794;2024-01-07T09:52:42;26.87;;;11.93;;
5569;SDS011;2808;51.240;6.794;2024-01-07T09:59:24;23.33;;;11.10;;
5569;SDS011;2808;51.240;6.794;2024-01-07T10:13:34;24.40;;;11.60;;
5569;SDS011;2808;51.240;6.794;2024-01-07T10:16:18;19.60;;;10.37;;
5569;SDS011;2808;51.240;6.794;2024-01-07T10:22:19;23.80;;;11.00;;
5569;SDS011;2808;51.240;6.794;2024-01-07T10:29:05;26.37;;;13.50;;
5569;SDS011;2808;51.240;6.794;2024-01-07T13:29:25;9.43;;;3.90;;
5569;SDS011;2808;51.240;6.794;2024-01-07T16:14:44;4.30;;;2.00;;
5569;SDS011;2808;51.240;6.794;2024-01-07T16:17:12;6.80;;;2.70;;
5569;SDS011;2808;51.240;6.794;2024-01-07T16:19:40;5.20;;;2.10;;
5569;SDS011;2808;51.240;6.794;2024-01-07T16:22:08;3.10;;;1.60;;
5569;SDS011;2808;51.240;6.794;2024-01-07T16:24:37;3.43;;;1.60;;
5569;SDS011;2808;51.240;6.794;2024-01-07T16:27:06;4.50;;;2.00;;
5569;SDS011;2808;51.240;6.794;2024-01-07T16:30:01;4.30;;;2.23;;
5569;SDS011;2808;51.240;6.794;2024-01-07T16:32:36;4.47;;;1.57;;
5569;SDS011;2808;51.240;6.794;2024-01-07T16:35:11;4.50;;;1.80;;
5569;SDS011;2808;51.240;6.794;2024-01-07T16:37:44;5.43;;;1.60;;
5569;SDS011;2808;51.240;6.794;2024-01-07T16:40:13;3.00;;;1.53;;
5569;SDS011;2808;51.240;6.794;2024-01-07T16:42:43;3.70;;;1.50;;
5569;SDS011;2808;51.240;6.794;2024-01-07T16:45:19;4.50;;;1.70;;
5569;SDS011;2808;51.240;6.794;2024-01-07T16:47:48;2.90;;;1.43;;
5569;SDS011;2808;51.240;6.794;2024-01-07T16:50:17;8.00;;;2.10;;
5569;SDS011;2808;51.240;6.794;2024-01-07T16:52:49;3.63;;;1.80;;
5569;SDS011;2808;51.240;6.794;2024-01-07T16:55:22;3.10;;;1.37;;
5569;SDS011;2808;51.240;6.794;2024-01-07T16:57:52;3.43;;;1.60;;
5569;SDS011;2808;51.240;6.794;2024-01-07T17:00:27;4.43;;;1.93;;
5569;SDS011;2808;51.240;6.794;2024-01-07T17:02:59;5.10;;;1.60;;
5569;SDS011;2808;51.240;6.794;2024-01-07T17:05:27;3.70;;;1.83;;
5569;SDS011;2808;51.240;6.794;2024-01-07T17:07:58;3.60;;;1.73;;
5569;SDS011;2808;51.240;6.794;2024-01-07T17:10:28;5.30;;;1.97;;
5569;SDS011;2808;51.240;6.794;2024-01-07T17:12:55;3.83;;;2.13;;
5569;SDS011;2808;51.240;6.794;2024-01-07T17:15:28;4.47;;;1.87;;
5569;SDS011;2808;51.240;6.794;2024-01-07T17:20:51;3.60;;;2.00;;
5569;SDS011;2808;51.240;6.794;2024-01-07T17:23:19;5.47;;;2.20;;
5569;SDS011;2808;51.240;6.794;2024-01-07T17:26:04;4.63;;;2.07;;
5569;SDS011;2808;51.240;6.794;2024-01-07T17:28:33;4.63;;;2.07;;
5569;SDS011;2808;51.240;6.794;2024-01-07T17:31:17;4.13;;;2.17;;
5569;SDS011;2808;51.240;6.794;2024-01-07T17:33:45;5.67;;;3.07;;
5569;SDS011;2808;51.240;6.794;2024-01-07T17:36:17;7.90;;;2.77;;
5569;SDS011;2808;51.240;6.794;2024-01-07T17:39:01;4.90;;;2.50;;
5569;SDS011;2808;51.240;6.794;2024-01-07T17:42:09;5.20;;;2.50;;
5569;SDS011;2808;51.240;6.794;2024-01-07T17:51:36;4.57;;;2.30;;
5569;SDS011;2808;51.240;6.794;2024-01-07T17:54:11;5.90;;;2.10;;
5569;SDS011;2808;51.240;6.794;2024-01-07T17:56:39;4.80;;;2.33;;
5569;SDS011;2808;51.240;6.794;2024-01-07T17:59:10;5.90;;;2.03;;
5569;SDS011;2808;51.240;6.794;2024-01-07T18:01:51;6.93;;;2.90;;
5569;SDS011;2808;51.240;6.794;2024-01-07T18:04:21;5.93;;;2.63;;
5569;SDS011;2808;51.240;6.794;2024-01-07T18:07:01;9.07;;;2.33;;
5569;SDS011;2808;51.240;6.794;2024-01-07T18:09:58;9.03;;;2.30;;
5569;SDS011;2808;51.240;6.794;2024-01-07T18:15:47;7.03;;;2.40;;
5569;SDS011;2808;51.240;6.794;2024-01-07T18:18:21;8.77;;;2.20;;
5569;SDS011;2808;51.240;6.794;2024-01-07T18:21:18;4.30;;;2.03;;
5569;SDS011;2808;51.240;6.794;2024-01-07T18:24:16;4.83;;;2.37;;
5569;SDS011;2808;51.240;6.794;2024-01-07T18:26:47;4.33;;;2.10;;
5569;SDS011;2808;51.240;6.794;2024-01-07T18:29:29;4.67;;;2.00;;
5569;SDS011;2808;51.240;6.794;2024-01-07T18:32:10;6.00;;;2.53;;
5569;SDS011;2808;51.240;6.794;2024-01-07T18:45:21;5.97;;;2.67;;
5569;SDS011;2808;51.240;6.794;2024-01-07T18:47:52;7.23;;;3.20;;
5569;SDS011;2808;51.240;6.794;2024-01-07T18:50:33;7.37;;;3.20;;
5569;SDS011;2808;51.240;6.794;2024-01-07T18:53:26;6.90;;;2.70;;
5569;SDS011;2808;51.240;6.794;2024-01-07T18:56:06;5.73;;;2.90;;
5569;SDS011;2808;51.240;6.794;2024-01-07T19:19:37;8.83;;;3.90;;
5569;SDS011;2808;51.240;6.794;2024-01-07T19:29:33;6.43;;;3.03;;
5569;SDS011;2808;51.240;6.794;2024-01-07T19:32:15;11.07;;;3.83;;
5569;SDS011;2808;51.240;6.794;2024-01-07T19:35:15;7.23;;;3.07;;
5569;SDS011;2808;51.240;6.794;2024-01-07T19:37:48;9.40;;;3.70;;
5569;SDS011;2808;51.240;6.794;2024-01-07T19:40:31;7.70;;;3.50;;
5569;SDS011;2808;51.240;6.794;2024-01-07T19:42:58;7.83;;;3.60;;
5569;SDS011;2808;51.240;6.794;2024-01-07T19:45:35;11.80;;;3.80;;
5569;SDS011;2808;51.240;6.794;2024-01-07T19:48:08;10.20;;;3.87;;
5569;SDS011;2808;51.240;6.794;2024-01-07T19:50:39;7.93;;;3.30;;
5569;SDS011;2808;51.240;6.794;2024-01-07T19:53:17;9.63;;;3.77;;
5569;SDS011;2808;51.240;6.794;2024-01-07T19:55:51;6.17;;;3.57;;
5569;SDS011;2808;51.240;6.794;2024-01-07T19:58:35;11.57;;;4.20;;
5569;SDS011;2808;51.240;6.794;2024-01-07T20:01:23;8.50;;;3.77;;
5569;SDS011;2808;51.240;6.794;2024-01-07T20:14:43;9.10;;;3.00;;
5569;SDS011;2808;51.240;6.794;2024-01-07T20:17:56;8.20;;;4.17;;
5569;SDS011;2808;51.240;6.794;2024-01-07T20:20:40;11.63;;;3.70;;
5569;SDS011;2808;51.240;6.794;2024-01-07T20:23:11;7.43;;;3.50;;
5569;SDS011;2808;51.240;6.794;2024-01-07T20:25:47;6.97;;;3.47;;
5569;SDS011;2808;51.240;6.794;2024-01-07T20:28:17;7.07;;;3.53;;
5569;SDS011;2808;51.240;6.794;2024-01-07T20:31:02;9.37;;;3.80;;
5569;SDS011;2808;51.240;6.794;2024-01-07T20:33:29;9.60;;;4.00;;
5569;SDS011;2808;51.240;6.794;2024-01-07T20:36:06;9.40;;;3.60;;
5569;SDS011;2808;51.240;6.794;2024-01-07T20:38:40;8.97;;;3.97;;
5569;SDS011;2808;51.240;6.794;2024-01-07T20:41:15;11.80;;;4.53;;
5569;SDS011;2808;51.240;6.794;2024-01-07T20:43:44;8.30;;;4.10;;
5569;SDS011;2808;51.240;6.794;2024-01-07T20:46:20;9.20;;;4.00;;
5569;SDS011;2808;51.240;6.794;2024-01-07T20:48:53;9.47;;;4.30;;
5569;SDS011;2808;51.240;6.794;2024-01-07T20:51:23;13.93;;;4.07;;
5569;SDS011;2808;51.240;6.794;2024-01-07T20:53:59;13.70;;;4.07;;
5569;SDS011;2808;51.240;6.794;2024-01-07T20:56:31;10.73;;;4.30;;
5569;SDS011;2808;51.240;6.794;2024-01-07T20:59:04;11.50;;;4.20;;
5569;SDS011;2808;51.240;6.794;2024-01-07T21:01:46;8.17;;;4.03;;
5569;SDS011;2808;51.240;6.794;2024-01-07T21:04:19;7.77;;;3.43;;
5569;SDS011;2808;51.240;6.794;2024-01-07T21:06:56;11.90;;;4.93;;
5569;SDS011;2808;51.240;6.794;2024-01-07T21:09:27;10.57;;;3.77;;
5569;SDS011;2808;51.240;6.794;2024-01-07T21:12:02;9.20;;;4.07;;
5569;SDS011;2808;51.240;6.794;2024-01-07T21:14:53;9.13;;;4.03;;
5569;SDS011;2808;51.240;6.794;2024-01-07T21:17:26;14.03;;;4.10;;
5569;SDS011;2808;51.240;6.794;2024-01-07T21:20:04;10.80;;;4.60;;
5569;SDS011;2808;51.240;6.794;2024-01-07T21:22:35;10.17;;;4.70;;
5569;SDS011;2808;51.240;6.794;2024-01-07T21:25:05;7.40;;;4.27;;
5569;SDS011;2808;51.240;6.794;2024-01-07T21:27:35;13.03;;;4.10;;
5569;SDS011;2808;51.240;6.794;2024-01-07T21:30:02;11.40;;;4.73;;
5569;SDS011;2808;51.240;6.794;2024-01-07T21:32:31;8.63;;;3.90;;
5569;SDS011;2808;51.240;6.794;2024-01-07T21:34:59;8.53;;;4.47;;
5569;SDS011;2808;51.240;6.794;2024-01-07T21:37:26;10.50;;;4.87;;
5569;SDS011;2808;51.240;6.794;2024-01-07T21:39:54;9.43;;;4.90;;
5569;SDS011;2808;51.240;6.794;2024-01-07T21:42:23;9.97;;;4.93;;
5569;SDS011;2808;51.240;6.794;2024-01-07T21:44:50;9.73;;;4.67;;
5569;SDS011;2808;51.240;6.794;2024-01-07T21:47:23;9.20;;;4.67;;
5569;SDS011;2808;51.240;6.794;2024-01-07T21:49:56;10.10;;;4.83;;
5569;SDS011;2808;51.240;6.794;2024-01-07T21:52:24;8.57;;;5.10;;
5569;SDS011;2808;51.240;6.794;2024-01-07T21:54:55;10.03;;;5.30;;
5569;SDS011;2808;51.240;6.794;2024-01-07T21:57:25;13.67;;;5.73;;
5569;SDS011;2808;51.240;6.794;2024-01-07T22:02:54;10.90;;;5.70;;
5569;SDS011;2808;51.240;6.794;2024-01-07T22:05:26;10.70;;;5.50;;
5569;SDS011;2808;51.240;6.794;2024-01-07T22:07:57;11.27;;;5.47;;
5569;SDS011;2808;51.240;6.794;2024-01-07T22:10:28;10.95;;;5.20;;
5569;SDS011;2808;51.240;6.794;2024-01-07T22:12:55;15.90;;;5.90;;
5569;SDS011;2808;51.240;6.794;2024-01-07T22:15:26;8.43;;;4.80;;
5569;SDS011;2808;51.240;6.794;2024-01-07T22:17:58;11.40;;;5.37;;
5569;SDS011;2808;51.240;6.794;2024-01-07T22:20:31;11.10;;;5.70;;
5569;SDS011;2808;51.240;6.794;2024-01-07T22:23:00;12.93;;;5.67;;
5569;SDS011;2808;51.240;6.794;2024-01-07T22:25:28;9.90;;;4.83;;
5569;SDS011;2808;51.240;6.794;2024-01-07T22:27:56;12.30;;;5.00;;
5569;SDS011;2808;51.240;6.794;2024-01-07T22:30:24;12.97;;;5.60;;
5569;SDS011;2808;51.240;6.794;2024-01-07T22:33:00;11.30;;;5.80;;
5569;SDS011;2808;51.240;6.794;2024-01-07T22:35:32;10.13;;;5.00;;
5569;SDS011;2808;51.240;6.794;2024-01-07T22:38:03;11.83;;;5.30;;
5569;SDS011;2808;51.240;6.794;2024-01-07T22:40:30;10.67;;;5.20;;
5569;SDS011;2808;51.240;6.794;2024-01-07T22:43:01;14.27;;;4.63;;
5569;SDS011;2808;51.240;6.794;2024-01-07T22:45:29;9.90;;;4.67;;
5569;SDS011;2808;51.240;6.794;2024-01-07T22:47:58;8.30;;;4.50;;
5569;SDS011;2808;51.240;6.794;2024-01-07T22:50:26;13.63;;;4.90;;
5569;SDS011;2808;51.240;6.794;2024-01-07T22:52:55;14.50;;;4.07;;
5569;SDS011;2808;51.240;6.794;2024-01-07T22:55:22;13.97;;;4.27;;
5569;SDS011;2808;51.240;6.794;2024-01-07T22:57:50;8.40;;;3.70;;
5569;SDS011;2808;51.240;6.794;2024-01-07T23:00:19;9.10;;;3.50;;
5569;SDS011;2808;51.240;6.794;2024-01-07T23:02:49;7.00;;;3.40;;
5569;SDS011;2808;51.240;6.794;2024-01-07T23:05:18;9.17;;;4.50;;
5569;SDS011;2808;51.240;6.794;2024-01-07T23:07:48;6.10;;;3.33;;
5569;SDS011;2808;51.240;6.794;2024-01-07T23:10:17;8.83;;;3.13;;
5569;SDS011;2808;51.240;6.794;2024-01-07T23:12:45;7.50;;;3.73;;
5569;SDS011;2808;51.240;6.794;2024-01-07T23:15:14;6.03;;;3.30;;
5569;SDS011;2808;51.240;6.794;2024-01-07T23:17:41;4.60;;;2.40;;
5569;SDS011;2808;51.240;6.794;2024-01-07T23:20:09;5.77;;;2.87;;
5569;SDS011;2808;51.240;6.794;2024-01-07T23:22:39;6.10;;;2.50;;
5569;SDS011;2808;51.240;6.794;2024-01-07T23:25:06;7.20;;;2.87;;
5569;SDS011;2808;51.240;6.794;2024-01-07T23:27:35;7.33;;;2.83;;
5569;SDS011;2808;51.240;6.794;2024-01-07T23:30:04;6.87;;;2.80;;
5569;SDS011;2808;51.240;6.794;2024-01-07T23:32:39;13.67;;;3.20;;
5569;SDS011;2808;51.240;6.794;2024-01-07T23:35:09;5.03;;;2.90;;
5569;SDS011;2808;51.240;6.794;2024-01-07T23:37:38;5.83;;;2.87;;